64NC weather

Fields Airport
Pleasant Garden, North Carolina, United States

Public forecast

Using degrees Fahrenheit for public forecast. Weather courtesy of forecast.io.

METAR (pilot weather report)

Closest report is Piedmont Triad International Airport, 14.2 nm (26.3 km) NW. Retrieved 2019/09/22 10:54 UTC (16 minutes ago):

KGSO 221054Z 23005KT 10SM CLR 18/16 A3021 RMK AO2 SLP221 T01780156

TAF (pilot weather forecast)

Closest forecast is Piedmont Triad International Airport, 14.2 nm (26.3 km) NW. Retrieved 2019/09/22 06:36 UTC (5 hours ago):

TAF KGSO 220534Z 2206/2306 21004KT P6SM FEW060 FEW100